sensor_id;sensor_type;location;lat;lon;timestamp;pressure;altitude;pressure_sealevel;temperature;humidity
57050;BME280;42935;50.966;16.992;2023-02-18T00:02:12;101291.42;;;7.71;98.03
57050;BME280;42935;50.966;16.992;2023-02-18T00:05:22;101284.72;;;7.69;95.35
57050;BME280;42935;50.966;16.992;2023-02-18T00:08:29;101279.12;;;7.74;93.30
57050;BME280;42935;50.966;16.992;2023-02-18T00:11:36;101299.13;;;7.65;94.22
57050;BME280;42935;50.966;16.992;2023-02-18T00:14:41;101297.91;;;7.55;97.22
57050;BME280;42935;50.966;16.992;2023-02-18T00:17:48;101305.75;;;7.70;90.44
57050;BME280;42935;50.966;16.992;2023-02-18T00:20:58;101303.44;;;7.74;83.58
57050;BME280;42935;50.966;16.992;2023-02-18T00:24:08;101308.08;;;7.59;80.10
57050;BME280;42935;50.966;16.992;2023-02-18T00:27:14;101322.66;;;7.48;79.64
57050;BME280;42935;50.966;16.992;2023-02-18T00:30:19;101301.64;;;7.34;79.20
57050;BME280;42935;50.966;16.992;2023-02-18T00:33:26;101330.95;;;7.40;78.02
57050;BME280;42935;50.966;16.992;2023-02-18T00:36:33;101323.31;;;7.29;78.27
57050;BME280;42935;50.966;16.992;2023-02-18T00:39:39;101321.30;;;7.34;76.84
57050;BME280;42935;50.966;16.992;2023-02-18T00:42:48;101315.32;;;7.09;78.78
57050;BME280;42935;50.966;16.992;2023-02-18T00:45:57;101314.37;;;7.14;78.67
57050;BME280;42935;50.966;16.992;2023-02-18T00:49:07;101314.25;;;7.00;80.39
57050;BME280;42935;50.966;16.992;2023-02-18T00:52:12;101320.94;;;6.74;84.64
57050;BME280;42935;50.966;16.992;2023-02-18T00:55:19;101321.12;;;6.91;84.29
57050;BME280;42935;50.966;16.992;2023-02-18T00:58:24;101327.48;;;6.99;84.68
57050;BME280;42935;50.966;16.992;2023-02-18T01:01:31;101319.70;;;6.94;86.44
57050;BME280;42935;50.966;16.992;2023-02-18T01:04:39;101337.75;;;6.96;85.90
57050;BME280;42935;50.966;16.992;2023-02-18T01:07:46;101325.89;;;6.90;85.13
57050;BME280;42935;50.966;16.992;2023-02-18T01:10:54;101284.12;;;6.59;83.64
57050;BME280;42935;50.966;16.992;2023-02-18T01:14:00;101336.58;;;6.94;82.26
57050;BME280;42935;50.966;16.992;2023-02-18T01:17:10;101340.48;;;6.90;84.02
57050;BME280;42935;50.966;16.992;2023-02-18T01:20:20;101343.39;;;6.84;86.03
57050;BME280;42935;50.966;16.992;2023-02-18T01:23:25;101342.06;;;6.86;88.07
57050;BME280;42935;50.966;16.992;2023-02-18T01:26:32;101339.88;;;6.91;89.43
57050;BME280;42935;50.966;16.992;2023-02-18T01:29:37;101339.36;;;6.68;93.40
57050;BME280;42935;50.966;16.992;2023-02-18T01:32:42;101343.99;;;6.75;94.94
57050;BME280;42935;50.966;16.992;2023-02-18T01:35:48;101341.45;;;6.94;90.97
57050;BME280;42935;50.966;16.992;2023-02-18T01:38:59;101350.47;;;6.99;85.99
57050;BME280;42935;50.966;16.992;2023-02-18T01:48:52;101359.02;;;6.97;75.40
57050;BME280;42935;50.966;16.992;2023-02-18T01:52:10;101344.66;;;6.79;74.30
57050;BME280;42935;50.966;16.992;2023-02-18T01:55:17;101357.91;;;6.75;73.03
57050;BME280;42935;50.966;16.992;2023-02-18T01:58:24;101353.01;;;6.64;72.55
57050;BME280;42935;50.966;16.992;2023-02-18T02:01:27;101362.09;;;6.53;72.45
57050;BME280;42935;50.966;16.992;2023-02-18T02:04:37;101374.62;;;6.59;71.53
57050;BME280;42935;50.966;16.992;2023-02-18T02:07:46;101368.24;;;6.49;70.74
57050;BME280;42935;50.966;16.992;2023-02-18T02:14:29;101369.27;;;6.55;69.55
57050;BME280;42935;50.966;16.992;2023-02-18T02:24:26;101366.93;;;6.19;70.24
57050;BME280;42935;50.966;16.992;2023-02-18T02:41:13;101368.73;;;5.87;72.01
57050;BME280;42935;50.966;16.992;2023-02-18T02:54:19;101395.16;;;5.75;73.18
57050;BME280;42935;50.966;16.992;2023-02-18T03:11:03;101397.33;;;5.56;74.96
57050;BME280;42935;50.966;16.992;2023-02-18T03:14:26;101398.72;;;5.43;75.83
57050;BME280;42935;50.966;16.992;2023-02-18T03:17:40;101398.79;;;5.52;74.89
57050;BME280;42935;50.966;16.992;2023-02-18T03:24:19;101392.94;;;5.41;74.67
57050;BME280;42935;50.966;16.992;2023-02-18T03:27:43;101401.25;;;5.48;73.97
57050;BME280;42935;50.966;16.992;2023-02-18T03:30:54;101403.34;;;5.40;74.28
57050;BME280;42935;50.966;16.992;2023-02-18T03:34:12;101401.30;;;5.35;74.17
57050;BME280;42935;50.966;16.992;2023-02-18T03:37:19;101393.54;;;5.34;73.53
57050;BME280;42935;50.966;16.992;2023-02-18T03:40:25;101395.65;;;5.38;72.92
57050;BME280;42935;50.966;16.992;2023-02-18T03:43:40;101404.75;;;5.47;72.46
57050;BME280;42935;50.966;16.992;2023-02-18T03:46:46;101408.43;;;5.33;72.26
57050;BME280;42935;50.966;16.992;2023-02-18T03:49:56;101408.21;;;5.24;72.68
57050;BME280;42935;50.966;16.992;2023-02-18T03:53:01;101414.11;;;5.32;71.61
57050;BME280;42935;50.966;16.992;2023-02-18T03:56:07;101414.06;;;5.20;72.14
57050;BME280;42935;50.966;16.992;2023-02-18T03:59:13;101418.63;;;5.36;71.32
57050;BME280;42935;50.966;16.992;2023-02-18T04:02:18;101429.12;;;5.42;71.23
57050;BME280;42935;50.966;16.992;2023-02-18T04:05:25;101437.90;;;5.28;72.26
57050;BME280;42935;50.966;16.992;2023-02-18T04:08:33;101444.61;;;5.17;72.97
57050;BME280;42935;50.966;16.992;2023-02-18T04:11:39;101454.05;;;5.12;73.38
57050;BME280;42935;50.966;16.992;2023-02-18T04:14:46;101456.09;;;5.17;73.17
57050;BME280;42935;50.966;16.992;2023-02-18T04:17:53;101444.48;;;5.12;72.63
57050;BME280;42935;50.966;16.992;2023-02-18T04:21:00;101445.38;;;4.98;73.08
57050;BME280;42935;50.966;16.992;2023-02-18T04:24:10;101447.77;;;5.04;72.58
57050;BME280;42935;50.966;16.992;2023-02-18T04:27:21;101407.58;;;4.75;72.73
57050;BME280;42935;50.966;16.992;2023-02-18T04:30:28;101448.59;;;5.19;71.63
57050;BME280;42935;50.966;16.992;2023-02-18T04:33:35;101450.41;;;5.22;71.41
57050;BME280;42935;50.966;16.992;2023-02-18T04:36:43;101444.94;;;5.26;70.29
57050;BME280;42935;50.966;16.992;2023-02-18T04:39:52;101443.99;;;5.31;69.57
57050;BME280;42935;50.966;16.992;2023-02-18T04:42:57;101442.05;;;5.54;68.14
57050;BME280;42935;50.966;16.992;2023-02-18T04:46:01;101401.45;;;5.13;68.50
57050;BME280;42935;50.966;16.992;2023-02-18T04:49:08;101454.07;;;5.32;69.43
57050;BME280;42935;50.966;16.992;2023-02-18T04:52:18;101460.07;;;5.31;69.45
57050;BME280;42935;50.966;16.992;2023-02-18T04:55:27;101454.88;;;5.33;69.33
57050;BME280;42935;50.966;16.992;2023-02-18T04:58:36;101433.79;;;5.42;68.32
57050;BME280;42935;50.966;16.992;2023-02-18T05:01:46;101445.99;;;5.44;68.22
57050;BME280;42935;50.966;16.992;2023-02-18T05:04:51;101439.87;;;5.52;67.60
57050;BME280;42935;50.966;16.992;2023-02-18T05:07:58;101441.31;;;5.55;67.35
57050;BME280;42935;50.966;16.992;2023-02-18T05:11:07;101433.88;;;5.42;67.98
57050;BME280;42935;50.966;16.992;2023-02-18T05:14:12;101432.12;;;5.40;67.81
57050;BME280;42935;50.966;16.992;2023-02-18T05:17:15;101445.70;;;5.64;66.48
57050;BME280;42935;50.966;16.992;2023-02-18T05:20:20;101449.39;;;5.54;67.20
57050;BME280;42935;50.966;16.992;2023-02-18T05:23:33;101443.66;;;5.46;67.32
57050;BME280;42935;50.966;16.992;2023-02-18T05:26:40;101459.81;;;5.44;67.46
57050;BME280;42935;50.966;16.992;2023-02-18T05:29:45;101458.55;;;5.56;67.19
57050;BME280;42935;50.966;16.992;2023-02-18T05:32:52;101457.01;;;5.53;67.30
57050;BME280;42935;50.966;16.992;2023-02-18T05:36:02;101470.76;;;5.59;66.93
57050;BME280;42935;50.966;16.992;2023-02-18T05:39:07;101463.69;;;5.46;67.56
57050;BME280;42935;50.966;16.992;2023-02-18T05:42:10;101468.93;;;5.50;67.99
57050;BME280;42935;50.966;16.992;2023-02-18T05:45:20;101476.22;;;5.57;67.44
57050;BME280;42935;50.966;16.992;2023-02-18T05:48:27;101471.67;;;5.58;67.44
57050;BME280;42935;50.966;16.992;2023-02-18T05:51:32;101478.81;;;5.61;67.32
57050;BME280;42935;50.966;16.992;2023-02-18T05:54:42;101466.94;;;5.58;67.54
57050;BME280;42935;50.966;16.992;2023-02-18T05:57:49;101472.78;;;5.55;68.05
57050;BME280;42935;50.966;16.992;2023-02-18T06:00:59;101476.32;;;5.65;67.40
57050;BME280;42935;50.966;16.992;2023-02-18T06:04:05;101482.60;;;5.65;67.45
57050;BME280;42935;50.966;16.992;2023-02-18T06:07:13;101465.02;;;5.58;67.63
57050;BME280;42935;50.966;16.992;2023-02-18T06:10:20;101463.04;;;5.53;68.03
57050;BME280;42935;50.966;16.992;2023-02-18T06:13:25;101471.64;;;5.60;67.71
57050;BME280;42935;50.966;16.992;2023-02-18T06:16:34;101476.52;;;5.61;68.23
57050;BME280;42935;50.966;16.992;2023-02-18T06:19:41;101492.54;;;5.62;68.55
57050;BME280;42935;50.966;16.992;2023-02-18T06:22:47;101474.56;;;5.66;68.21
57050;BME280;42935;50.966;16.992;2023-02-18T06:25:52;101472.87;;;5.71;67.90
57050;BME280;42935;50.966;16.992;2023-02-18T06:28:57;101467.28;;;5.77;67.83
57050;BME280;42935;50.966;16.992;2023-02-18T06:32:04;101472.05;;;5.70;68.63
57050;BME280;42935;50.966;16.992;2023-02-18T06:35:11;101445.65;;;5.62;68.17
57050;BME280;42935;50.966;16.992;2023-02-18T06:38:21;101465.41;;;5.78;67.62
57050;BME280;42935;50.966;16.992;2023-02-18T06:41:26;101484.59;;;5.70;68.85
57050;BME280;42935;50.966;16.992;2023-02-18T06:44:35;101474.46;;;5.68;68.71
57050;BME280;42935;50.966;16.992;2023-02-18T06:47:44;101477.87;;;5.67;69.47
57050;BME280;42935;50.966;16.992;2023-02-18T06:50:54;101468.79;;;5.70;68.62
57050;BME280;42935;50.966;16.992;2023-02-18T06:53:59;101466.34;;;5.79;67.97
57050;BME280;42935;50.966;16.992;2023-02-18T06:57:13;101477.13;;;5.71;69.00
57050;BME280;42935;50.966;16.992;2023-02-18T07:00:22;101484.59;;;5.81;68.50
57050;BME280;42935;50.966;16.992;2023-02-18T07:03:30;101485.59;;;5.81;68.47
57050;BME280;42935;50.966;16.992;2023-02-18T07:06:37;101490.70;;;5.80;68.52
57050;BME280;42935;50.966;16.992;2023-02-18T07:09:42;101492.96;;;5.83;68.45
57050;BME280;42935;50.966;16.992;2023-02-18T07:12:49;101494.84;;;5.83;68.55
57050;BME280;42935;50.966;16.992;2023-02-18T07:15:54;101505.19;;;5.85;68.69
57050;BME280;42935;50.966;16.992;2023-02-18T07:18:59;101499.39;;;5.89;68.54
57050;BME280;42935;50.966;16.992;2023-02-18T07:22:06;101470.07;;;5.72;68.97
57050;BME280;42935;50.966;16.992;2023-02-18T07:25:18;101485.49;;;5.93;68.94
57050;BME280;42935;50.966;16.992;2023-02-18T07:28:28;101468.43;;;5.77;69.38
57050;BME280;42935;50.966;16.992;2023-02-18T07:31:30;101478.13;;;5.90;69.15
57050;BME280;42935;50.966;16.992;2023-02-18T07:34:33;101493.11;;;6.04;68.82
57050;BME280;42935;50.966;16.992;2023-02-18T07:37:50;101494.08;;;6.06;69.25
57050;BME280;42935;50.966;16.992;2023-02-18T07:41:01;101492.08;;;6.05;69.67
57050;BME280;42935;50.966;16.992;2023-02-18T07:44:08;101489.66;;;6.15;69.18
57050;BME280;42935;50.966;16.992;2023-02-18T07:47:17;101496.75;;;6.15;69.71
57050;BME280;42935;50.966;16.992;2023-02-18T07:50:24;101493.38;;;6.18;69.72
57050;BME280;42935;50.966;16.992;2023-02-18T07:53:32;101496.41;;;6.13;70.61
57050;BME280;42935;50.966;16.992;2023-02-18T07:56:46;101499.59;;;6.17;71.38
57050;BME280;42935;50.966;16.992;2023-02-18T08:00:03;101499.47;;;6.26;70.49
57050;BME280;42935;50.966;16.992;2023-02-18T08:03:11;101509.04;;;6.27;71.22
57050;BME280;42935;50.966;16.992;2023-02-18T08:06:27;101508.88;;;6.29;71.52
57050;BME280;42935;50.966;16.992;2023-02-18T08:09:34;101503.06;;;6.22;72.16
57050;BME280;42935;50.966;16.992;2023-02-18T08:12:44;101494.30;;;6.28;72.79
57050;BME280;42935;50.966;16.992;2023-02-18T08:15:54;101489.52;;;6.29;72.82
57050;BME280;42935;50.966;16.992;2023-02-18T08:19:05;101506.40;;;6.34;74.15
57050;BME280;42935;50.966;16.992;2023-02-18T08:22:15;101501.38;;;6.44;73.51
57050;BME280;42935;50.966;16.992;2023-02-18T08:25:22;101500.44;;;6.38;74.85
57050;BME280;42935;50.966;16.992;2023-02-18T08:28:31;101505.13;;;6.52;75.20
57050;BME280;42935;50.966;16.992;2023-02-18T08:31:41;101498.55;;;6.57;74.77
57050;BME280;42935;50.966;16.992;2023-02-18T08:34:46;101496.78;;;6.65;74.92
57050;BME280;42935;50.966;16.992;2023-02-18T08:37:51;101496.03;;;6.71;74.98
57050;BME280;42935;50.966;16.992;2023-02-18T08:41:02;101472.37;;;6.56;75.88
57050;BME280;42935;50.966;16.992;2023-02-18T08:44:09;101505.77;;;6.73;76.29
57050;BME280;42935;50.966;16.992;2023-02-18T08:47:20;101499.64;;;6.67;76.79
57050;BME280;42935;50.966;16.992;2023-02-18T08:50:28;101517.87;;;6.56;76.09
57050;BME280;42935;50.966;16.992;2023-02-18T08:53:35;101510.74;;;6.28;74.81
57050;BME280;42935;50.966;16.992;2023-02-18T08:56:39;101500.67;;;6.17;77.82
57050;BME280;42935;50.966;16.992;2023-02-18T08:59:47;101494.69;;;6.25;76.11
57050;BME280;42935;50.966;16.992;2023-02-18T09:02:57;101506.79;;;6.34;74.01
57050;BME280;42935;50.966;16.992;2023-02-18T09:06:04;101513.09;;;6.37;73.89
57050;BME280;42935;50.966;16.992;2023-02-18T09:09:11;101494.77;;;6.34;74.62
57050;BME280;42935;50.966;16.992;2023-02-18T09:12:20;101491.98;;;6.37;74.78
57050;BME280;42935;50.966;16.992;2023-02-18T09:15:27;101490.13;;;6.33;75.97
57050;BME280;42935;50.966;16.992;2023-02-18T09:18:36;101488.81;;;6.35;76.05
57050;BME280;42935;50.966;16.992;2023-02-18T09:21:42;101469.60;;;6.24;76.88
57050;BME280;42935;50.966;16.992;2023-02-18T09:24:51;101488.33;;;6.34;76.73
57050;BME280;42935;50.966;16.992;2023-02-18T09:27:57;101490.09;;;6.32;78.08
57050;BME280;42935;50.966;16.992;2023-02-18T09:31:12;101501.73;;;6.18;81.44
57050;BME280;42935;50.966;16.992;2023-02-18T09:34:23;101507.88;;;6.14;86.54
57050;BME280;42935;50.966;16.992;2023-02-18T09:37:33;101505.26;;;5.98;87.09
57050;BME280;42935;50.966;16.992;2023-02-18T09:40:52;101501.25;;;5.99;88.03
57050;BME280;42935;50.966;16.992;2023-02-18T09:47:18;101492.98;;;5.96;90.55
57050;BME280;42935;50.966;16.992;2023-02-18T09:50:32;101490.63;;;5.98;91.08
57050;BME280;42935;50.966;16.992;2023-02-18T09:53:41;101479.90;;;5.99;96.78
57050;BME280;42935;50.966;16.992;2023-02-18T09:56:53;101477.13;;;5.97;97.21
57050;BME280;42935;50.966;16.992;2023-02-18T10:00:12;101472.95;;;5.89;100.00
57050;BME280;42935;50.966;16.992;2023-02-18T10:03:23;101473.85;;;5.83;100.00
57050;BME280;42935;50.966;16.992;2023-02-18T10:06:33;101466.91;;;5.78;100.00
57050;BME280;42935;50.966;16.992;2023-02-18T10:09:39;101471.20;;;5.76;100.00
57050;BME280;42935;50.966;16.992;2023-02-18T10:12:50;101473.35;;;5.80;100.00
57050;BME280;42935;50.966;16.992;2023-02-18T10:16:03;101464.82;;;5.82;100.00
57050;BME280;42935;50.966;16.992;2023-02-18T10:22:29;101457.87;;;5.76;100.00
57050;BME280;42935;50.966;16.992;2023-02-18T10:25:41;101454.80;;;5.74;100.00
57050;BME280;42935;50.966;16.992;2023-02-18T10:28:52;101442.84;;;5.66;100.00
57050;BME280;42935;50.966;16.992;2023-02-18T10:32:14;101430.25;;;5.69;100.00
57050;BME280;42935;50.966;16.992;2023-02-18T10:35:33;101431.66;;;5.70;100.00
57050;BME280;42935;50.966;16.992;2023-02-18T10:38:57;101407.16;;;5.56;100.00
57050;BME280;42935;50.966;16.992;2023-02-18T10:42:11;101395.94;;;5.50;100.00
57050;BME280;42935;50.966;16.992;2023-02-18T10:48:49;101379.52;;;5.57;100.00
57050;BME280;42935;50.966;16.992;2023-02-18T10:51:58;101372.93;;;5.70;100.00
57050;BME280;42935;50.966;16.992;2023-02-18T10:55:10;101363.88;;;5.82;100.00
57050;BME280;42935;50.966;16.992;2023-02-18T10:58:32;101359.84;;;5.76;100.00
57050;BME280;42935;50.966;16.992;2023-02-18T11:01:42;101347.35;;;5.92;100.00
57050;BME280;42935;50.966;16.992;2023-02-18T11:04:49;101348.04;;;5.92;100.00
57050;BME280;42935;50.966;16.992;2023-02-18T11:07:56;101340.62;;;5.72;100.00
57050;BME280;42935;50.966;16.992;2023-02-18T11:11:22;101322.66;;;5.74;100.00
57050;BME280;42935;50.966;16.992;2023-02-18T11:17:44;101308.17;;;5.90;100.00
57050;BME280;42935;50.966;16.992;2023-02-18T11:20:59;101316.27;;;5.87;100.00
57050;BME280;42935;50.966;16.992;2023-02-18T11:24:16;101315.80;;;5.78;100.00
57050;BME280;42935;50.966;16.992;2023-02-18T11:30:49;101274.76;;;5.53;100.00
57050;BME280;42935;50.966;16.992;2023-02-18T11:34:02;101267.52;;;5.55;100.00
57050;BME280;42935;50.966;16.992;2023-02-18T11:37:12;101275.28;;;5.58;100.00
57050;BME280;42935;50.966;16.992;2023-02-18T11:43:41;101241.53;;;5.56;100.00
57050;BME280;42935;50.966;16.992;2023-02-18T11:50:16;101214.88;;;5.32;100.00
57050;BME280;42935;50.966;16.992;2023-02-18T11:53:34;101208.73;;;5.36;100.00
57050;BME280;42935;50.966;16.992;2023-02-18T11:56:53;101200.57;;;5.28;100.00
57050;BME280;42935;50.966;16.992;2023-02-18T11:59:56;101198.91;;;5.36;100.00
57050;BME280;42935;50.966;16.992;2023-02-18T12:09:47;101187.59;;;5.43;100.00
57050;BME280;42935;50.966;16.992;2023-02-18T12:13:05;101150.39;;;5.40;100.00
57050;BME280;42935;50.966;16.992;2023-02-18T12:19:40;101132.99;;;5.68;100.00
57050;BME280;42935;50.966;16.992;2023-02-18T12:26:18;101133.89;;;5.52;100.00
57050;BME280;42935;50.966;16.992;2023-02-18T12:29:39;101078.22;;;5.72;100.00
57050;BME280;42935;50.966;16.992;2023-02-18T12:33:01;101091.02;;;6.07;100.00
57050;BME280;42935;50.966;16.992;2023-02-18T13:16:03;100991.16;;;5.99;100.00
57050;BME280;42935;50.966;16.992;2023-02-18T13:19:25;100975.45;;;6.08;100.00
57050;BME280;42935;50.966;16.992;2023-02-18T13:22:38;100965.27;;;6.11;100.00
57050;BME280;42935;50.966;16.992;2023-02-18T13:25:55;100958.45;;;6.19;100.00
57050;BME280;42935;50.966;16.992;2023-02-18T13:32:36;100943.03;;;6.04;100.00
57050;BME280;42935;50.966;16.992;2023-02-18T13:35:57;100927.91;;;6.24;100.00
57050;BME280;42935;50.966;16.992;2023-02-18T13:39:11;100917.23;;;6.11;100.00
57050;BME280;42935;50.966;16.992;2023-02-18T13:42:35;100913.68;;;6.10;100.00
57050;BME280;42935;50.966;16.992;2023-02-18T13:49:08;100902.51;;;6.22;100.00
57050;BME280;42935;50.966;16.992;2023-02-18T13:52:19;100898.90;;;6.38;100.00
57050;BME280;42935;50.966;16.992;2023-02-18T13:58:53;100889.62;;;6.37;100.00
57050;BME280;42935;50.966;16.992;2023-02-18T14:05:23;100877.95;;;6.35;100.00
57050;BME280;42935;50.966;16.992;2023-02-18T14:08:36;100873.30;;;6.35;100.00
57050;BME280;42935;50.966;16.992;2023-02-18T14:21:49;100829.85;;;6.35;100.00
57050;BME280;42935;50.966;16.992;2023-02-18T14:31:53;100804.92;;;6.44;100.00
57050;BME280;42935;50.966;16.992;2023-02-18T14:35:13;100794.20;;;6.38;100.00
57050;BME280;42935;50.966;16.992;2023-02-18T14:41:56;100769.73;;;6.44;100.00
57050;BME280;42935;50.966;16.992;2023-02-18T14:48:38;100774.62;;;6.67;100.00
57050;BME280;42935;50.966;16.992;2023-02-18T14:51:50;100773.70;;;6.72;100.00
57050;BME280;42935;50.966;16.992;2023-02-18T14:55:00;100758.19;;;6.96;100.00
57050;BME280;42935;50.966;16.992;2023-02-18T15:01:32;100763.57;;;7.72;100.00
57050;BME280;42935;50.966;16.992;2023-02-18T15:04:37;100777.84;;;7.99;100.00
57050;BME280;42935;50.966;16.992;2023-02-18T15:07:56;100772.92;;;8.24;100.00
57050;BME280;42935;50.966;16.992;2023-02-18T15:11:05;100756.72;;;8.33;100.00
57050;BME280;42935;50.966;16.992;2023-02-18T15:14:19;100783.38;;;8.29;100.00
57050;BME280;42935;50.966;16.992;2023-02-18T15:17:27;100781.42;;;8.26;100.00
57050;BME280;42935;50.966;16.992;2023-02-18T15:20:37;100804.24;;;8.23;100.00
57050;BME280;42935;50.966;16.992;2023-02-18T15:23:48;100791.43;;;8.18;100.00
57050;BME280;42935;50.966;16.992;2023-02-18T15:30:20;100789.70;;;8.21;100.00
57050;BME280;42935;50.966;16.992;2023-02-18T15:33:35;100790.62;;;8.42;100.00
57050;BME280;42935;50.966;16.992;2023-02-18T15:36:51;100796.39;;;8.50;100.00
57050;BME280;42935;50.966;16.992;2023-02-18T15:39:58;100792.45;;;8.81;100.00
57050;BME280;42935;50.966;16.992;2023-02-18T15:43:07;100792.95;;;9.42;100.00
57050;BME280;42935;50.966;16.992;2023-02-18T15:46:16;100766.09;;;9.07;100.00
57050;BME280;42935;50.966;16.992;2023-02-18T15:49:24;100776.46;;;9.37;100.00
57050;BME280;42935;50.966;16.992;2023-02-18T15:52:37;100740.27;;;9.23;100.00
57050;BME280;42935;50.966;16.992;2023-02-18T15:55:49;100762.74;;;9.39;100.00
57050;BME280;42935;50.966;16.992;2023-02-18T16:02:23;100757.61;;;9.27;100.00
57050;BME280;42935;50.966;16.992;2023-02-18T16:05:30;100755.14;;;9.24;100.00
57050;BME280;42935;50.966;16.992;2023-02-18T16:08:38;100771.38;;;9.60;100.00
57050;BME280;42935;50.966;16.992;2023-02-18T16:11:51;100762.92;;;9.30;100.00
57050;BME280;42935;50.966;16.992;2023-02-18T16:15:04;100757.66;;;9.46;100.00
57050;BME280;42935;50.966;16.992;2023-02-18T16:18:21;100768.95;;;9.51;100.00
57050;BME280;42935;50.966;16.992;2023-02-18T16:21:38;100790.60;;;9.32;100.00
57050;BME280;42935;50.966;16.992;2023-02-18T16:24:48;100758.38;;;9.31;100.00
57050;BME280;42935;50.966;16.992;2023-02-18T16:28:05;100762.88;;;9.38;100.00
57050;BME280;42935;50.966;16.992;2023-02-18T16:31:12;100748.99;;;9.29;100.00
57050;BME280;42935;50.966;16.992;2023-02-18T16:34:19;100763.26;;;9.33;100.00
57050;BME280;42935;50.966;16.992;2023-02-18T16:37:29;100790.41;;;9.54;100.00
57050;BME280;42935;50.966;16.992;2023-02-18T16:40:42;100774.95;;;9.42;100.00
57050;BME280;42935;50.966;16.992;2023-02-18T16:43:53;100800.45;;;9.54;100.00
57050;BME280;42935;50.966;16.992;2023-02-18T16:46:57;100799.08;;;9.58;100.00
57050;BME280;42935;50.966;16.992;2023-02-18T16:50:02;100783.19;;;9.62;100.00
57050;BME280;42935;50.966;16.992;2023-02-18T16:53:11;100794.69;;;9.55;100.00
57050;BME280;42935;50.966;16.992;2023-02-18T16:56:22;100801.26;;;9.51;100.00
57050;BME280;42935;50.966;16.992;2023-02-18T16:59:29;100803.20;;;9.52;100.00
57050;BME280;42935;50.966;16.992;2023-02-18T17:03:06;100801.27;;;9.45;100.00
57050;BME280;42935;50.966;16.992;2023-02-18T17:06:10;100800.08;;;9.32;100.00
57050;BME280;42935;50.966;16.992;2023-02-18T17:09:22;100797.09;;;9.41;100.00
57050;BME280;42935;50.966;16.992;2023-02-18T17:12:32;100789.93;;;9.33;100.00
57050;BME280;42935;50.966;16.992;2023-02-18T17:15:39;100806.22;;;9.38;100.00
57050;BME280;42935;50.966;16.992;2023-02-18T17:18:47;100799.91;;;9.41;100.00
57050;BME280;42935;50.966;16.992;2023-02-18T17:21:54;100787.53;;;9.22;100.00
57050;BME280;42935;50.966;16.992;2023-02-18T17:25:00;100798.15;;;9.25;100.00
57050;BME280;42935;50.966;16.992;2023-02-18T17:28:08;100809.37;;;9.29;100.00
57050;BME280;42935;50.966;16.992;2023-02-18T17:31:20;100792.09;;;9.19;100.00
57050;BME280;42935;50.966;16.992;2023-02-18T17:34:29;100821.40;;;9.32;100.00
57050;BME280;42935;50.966;16.992;2023-02-18T17:37:39;100820.37;;;9.26;100.00
57050;BME280;42935;50.966;16.992;2023-02-18T17:40:45;100788.28;;;8.97;100.00
57050;BME280;42935;50.966;16.992;2023-02-18T17:43:56;100853.45;;;9.24;100.00
57050;BME280;42935;50.966;16.992;2023-02-18T17:47:01;100853.55;;;9.12;100.00
57050;BME280;42935;50.966;16.992;2023-02-18T17:50:07;100865.68;;;9.16;100.00
57050;BME280;42935;50.966;16.992;2023-02-18T17:53:12;100854.19;;;9.04;100.00
57050;BME280;42935;50.966;16.992;2023-02-18T17:56:21;100856.18;;;8.98;100.00
57050;BME280;42935;50.966;16.992;2023-02-18T17:59:31;100862.38;;;8.99;100.00
57050;BME280;42935;50.966;16.992;2023-02-18T18:02:39;100857.58;;;9.10;100.00
57050;BME280;42935;50.966;16.992;2023-02-18T18:05:46;100879.52;;;9.04;100.00
57050;BME280;42935;50.966;16.992;2023-02-18T18:08:53;100892.67;;;9.00;100.00
57050;BME280;42935;50.966;16.992;2023-02-18T18:12:01;100881.60;;;9.06;100.00
57050;BME280;42935;50.966;16.992;2023-02-18T18:18:29;100894.69;;;9.19;100.00
57050;BME280;42935;50.966;16.992;2023-02-18T18:21:38;100899.31;;;9.23;100.00
57050;BME280;42935;50.966;16.992;2023-02-18T18:24:44;100918.10;;;9.17;100.00
57050;BME280;42935;50.966;16.992;2023-02-18T18:27:52;100919.38;;;9.04;100.00
57050;BME280;42935;50.966;16.992;2023-02-18T18:31:02;100915.09;;;9.09;100.00
57050;BME280;42935;50.966;16.992;2023-02-18T18:34:14;100908.67;;;9.00;100.00
57050;BME280;42935;50.966;16.992;2023-02-18T18:37:24;100918.77;;;8.92;100.00
57050;BME280;42935;50.966;16.992;2023-02-18T18:40:33;100920.56;;;8.93;100.00
57050;BME280;42935;50.966;16.992;2023-02-18T18:43:42;100935.10;;;8.98;100.00
57050;BME280;42935;50.966;16.992;2023-02-18T18:46:46;100924.04;;;8.99;100.00
57050;BME280;42935;50.966;16.992;2023-02-18T18:49:52;100956.10;;;9.08;100.00
57050;BME280;42935;50.966;16.992;2023-02-18T18:52:59;100951.36;;;9.09;100.00
57050;BME280;42935;50.966;16.992;2023-02-18T18:56:06;100941.61;;;9.14;100.00
57050;BME280;42935;50.966;16.992;2023-02-18T18:59:16;100965.55;;;9.07;100.00
57050;BME280;42935;50.966;16.992;2023-02-18T19:02:25;100962.37;;;9.01;100.00
57050;BME280;42935;50.966;16.992;2023-02-18T19:05:36;100975.84;;;9.05;100.00
57050;BME280;42935;50.966;16.992;2023-02-18T19:08:44;100973.20;;;8.95;100.00
57050;BME280;42935;50.966;16.992;2023-02-18T19:11:51;100974.14;;;9.01;100.00
57050;BME280;42935;50.966;16.992;2023-02-18T19:14:58;100974.36;;;9.00;100.00
57050;BME280;42935;50.966;16.992;2023-02-18T19:18:07;100993.74;;;9.01;100.00
57050;BME280;42935;50.966;16.992;2023-02-18T19:21:18;100992.55;;;8.99;100.00
57050;BME280;42935;50.966;16.992;2023-02-18T19:24:27;101010.06;;;8.99;100.00
57050;BME280;42935;50.966;16.992;2023-02-18T19:27:41;101029.56;;;8.87;100.00
57050;BME280;42935;50.966;16.992;2023-02-18T19:30:46;101029.30;;;8.68;100.00